Time;durP1;ratioP1;P1;durP2;ratioP2;P2;SDS_P1;SDS_P2;PMS_P1;PMS_P2;Temp;Humidity;BMP_temperature;BMP_pressure;BME280_temperature;BME280_humidity;BME280_pressure;Samples;Min_cycle;Max_cycle;Signal;HPM_P1;HPM_P2
2023/10/07 00:01:24;;;;;;;9.55;3.95;;;17.30;55.50;;;;;;5019113;28;20069;-46
2023/10/07 00:03:53;;;;;;;8.32;4.18;;;17.30;55.50;;;;;;5018867;28;20060;-47
2023/10/07 00:06:25;;;;;;;9.32;3.97;;;17.30;55.60;;;;;;5019669;28;20050;-45
2023/10/07 00:08:53;;;;;;;7.70;3.80;;;17.30;55.60;;;;;;5019893;28;20060;-49
2023/10/07 00:11:20;;;;;;;12.18;4.13;;;17.20;55.50;;;;;;5019379;28;20669;-50
2023/10/07 00:13:49;;;;;;;9.45;3.88;;;17.20;55.50;;;;;;5019695;28;20060;-48
2023/10/07 00:16:18;;;;;;;10.10;3.40;;;17.20;55.50;;;;;;5020186;28;20056;-47
2023/10/07 00:18:46;;;;;;;9.50;3.70;;;17.20;55.50;;;;;;5019753;28;20143;-47
2023/10/07 00:21:24;;;;;;;17.52;5.13;;;17.20;55.50;;;;;;5017784;28;20061;-51
2023/10/07 00:23:53;;;;;;;11.57;4.13;;;17.10;55.50;;;;;;5018788;28;20060;-47
2023/10/07 00:26:20;;;;;;;12.15;4.28;;;17.10;55.60;;;;;;5019716;28;20057;-51
2023/10/07 00:29:00;;;;;;;8.80;3.80;;;17.10;55.60;;;;;;5020589;28;20053;-47
2023/10/07 00:31:32;;;;;;;9.05;3.90;;;17.10;55.60;;;;;;5017390;28;20045;-47
2023/10/07 00:34:11;;;;;;;11.52;4.47;;;17.10;55.60;;;;;;5018163;28;20069;-47
2023/10/07 00:36:47;;;;;;;12.85;3.67;;;17.00;55.60;;;;;;5018044;28;20060;-47
2023/10/07 00:39:20;;;;;;;11.98;4.60;;;17.10;55.70;;;;;;5019706;28;20399;-49
2023/10/07 00:41:50;;;;;;;9.57;3.95;;;17.00;55.70;;;;;;5018753;28;20409;-48
2023/10/07 00:44:22;;;;;;;13.20;4.00;;;17.00;55.70;;;;;;5019145;28;20489;-49
2023/10/07 00:47:07;;;;;;;9.40;3.80;;;17.00;55.80;;;;;;5019162;28;20054;-51
2023/10/07 00:49:41;;;;;;;10.90;3.80;;;17.00;55.80;;;;;;5019296;28;20057;-46
2023/10/07 00:52:11;;;;;;;9.57;4.05;;;17.00;55.90;;;;;;5018576;28;20504;-47
2023/10/07 00:54:50;;;;;;;10.75;4.00;;;17.00;55.90;;;;;;5019806;28;20061;-51
2023/10/07 00:57:24;;;;;;;7.65;3.95;;;16.90;55.90;;;;;;5020197;28;20501;-49
2023/10/07 00:59:55;;;;;;;10.25;3.95;;;16.90;55.90;;;;;;5018303;28;20053;-47
2023/10/07 01:02:29;;;;;;;10.50;4.28;;;16.90;55.90;;;;;;5019720;28;20070;-49
2023/10/07 01:05:00;;;;;;;10.88;4.10;;;16.90;56.00;;;;;;5022437;28;20053;-49
2023/10/07 01:07:28;;;;;;;14.15;4.40;;;16.90;56.10;;;;;;5023033;28;20061;-51
2023/10/07 01:10:12;;;;;;;14.70;4.38;;;16.90;56.00;;;;;;5023052;28;20053;-51
2023/10/07 01:12:42;;;;;;;21.30;5.32;;;16.80;56.10;;;;;;5022343;28;20057;-46
2023/10/07 01:15:22;;;;;;;9.02;3.60;;;16.80;56.10;;;;;;5023193;28;21220;-48
2023/10/07 01:17:59;;;;;;;9.00;3.80;;;16.80;56.30;;;;;;5022909;28;20057;-48
2023/10/07 01:20:34;;;;;;;12.20;4.68;;;16.80;56.20;;;;;;5019631;28;20056;-49
2023/10/07 01:23:05;;;;;;;15.02;4.75;;;16.70;56.30;;;;;;5023328;28;20049;-48
2023/10/07 01:25:35;;;;;;;11.02;3.97;;;16.70;56.30;;;;;;5024199;28;20053;-49
2023/10/07 01:28:04;;;;;;;9.73;4.50;;;16.60;56.40;;;;;;5020713;28;20041;-43
2023/10/07 01:30:34;;;;;;;13.93;4.72;;;16.60;56.50;;;;;;5021558;28;20068;-45
2023/10/07 01:33:09;;;;;;;11.15;4.50;;;16.60;56.60;;;;;;5020578;28;20413;-44
2023/10/07 01:35:40;;;;;;;11.00;4.43;;;16.60;56.60;;;;;;5021705;28;20403;-48
2023/10/07 01:38:08;;;;;;;11.98;4.55;;;16.60;56.60;;;;;;5023617;28;20462;-45
2023/10/07 01:40:54;;;;;;;9.38;3.78;;;16.50;56.70;;;;;;5021677;28;20068;-47
2023/10/07 01:43:21;;;;;;;12.18;3.97;;;16.50;56.70;;;;;;5021244;28;20049;-47
2023/10/07 01:45:52;;;;;;;11.35;4.07;;;16.50;56.70;;;;;;5021607;28;20052;-46
2023/10/07 01:48:20;;;;;;;11.13;4.50;;;16.50;56.80;;;;;;5021893;28;20049;-45
2023/10/07 01:50:49;;;;;;;13.38;3.88;;;16.50;56.80;;;;;;5020602;28;20050;-47
2023/10/07 01:53:18;;;;;;;13.68;4.65;;;16.50;56.90;;;;;;5022169;28;20405;-46
2023/10/07 01:55:46;;;;;;;8.63;3.88;;;16.40;56.90;;;;;;5023008;28;20060;-47
2023/10/07 01:58:14;;;;;;;9.88;4.18;;;16.50;57.00;;;;;;5021048;28;20409;-48
2023/10/07 02:00:45;;;;;;;10.50;4.50;;;16.40;57.10;;;;;;5020529;28;20497;-44
2023/10/07 02:03:16;;;;;;;9.80;3.47;;;16.40;57.10;;;;;;5021640;28;20490;-44
2023/10/07 02:05:47;;;;;;;10.35;4.30;;;16.40;57.10;;;;;;5021067;28;20054;-43
2023/10/07 02:08:18;;;;;;;10.52;4.68;;;16.30;57.10;;;;;;5021688;28;20046;-48
2023/10/07 02:10:47;;;;;;;9.77;3.95;;;16.30;57.20;;;;;;5022531;28;20513;-43
2023/10/07 02:13:19;;;;;;;10.73;4.22;;;16.30;57.20;;;;;;5020379;28;20049;-47
2023/10/07 02:15:46;;;;;;;12.95;4.03;;;16.30;57.20;;;;;;5022542;28;20619;-45
2023/10/07 02:18:16;;;;;;;11.70;4.00;;;16.30;57.30;;;;;;5021870;28;20060;-45
2023/10/07 02:20:49;;;;;;;9.82;4.10;;;16.30;57.20;;;;;;5020601;28;20057;-48
2023/10/07 02:23:22;;;;;;;12.68;4.55;;;16.40;57.30;;;;;;5022093;28;20056;-45
2023/10/07 02:25:51;;;;;;;16.40;4.38;;;16.30;57.30;;;;;;5022301;28;20060;-46
2023/10/07 02:28:21;;;;;;;14.20;4.78;;;16.40;57.30;;;;;;5020784;28;20053;-44
2023/10/07 02:31:00;;;;;;;13.88;4.40;;;16.30;57.30;;;;;;5021532;28;20054;-47
2023/10/07 02:33:28;;;;;;;10.30;4.18;;;16.40;57.40;;;;;;5021740;28;20065;-45
2023/10/07 02:35:58;;;;;;;9.15;4.05;;;16.40;57.40;;;;;;5019903;28;20046;-44
2023/10/07 02:38:29;;;;;;;10.38;4.53;;;16.40;57.40;;;;;;5021617;28;20426;-49
2023/10/07 02:41:06;;;;;;;9.45;4.30;;;16.40;57.40;;;;;;5020414;28;20061;-45
2023/10/07 02:43:35;;;;;;;17.02;4.75;;;16.40;57.40;;;;;;5020189;28;20421;-50
2023/10/07 02:46:05;;;;;;;8.77;4.07;;;16.40;57.40;;;;;;5021506;28;20053;-49
2023/10/07 02:48:38;;;;;;;9.55;4.03;;;16.40;57.30;;;;;;5020693;28;20062;-49
2023/10/07 02:51:11;;;;;;;10.07;4.30;;;16.40;57.30;;;;;;5019371;28;20083;-48
2023/10/07 02:53:38;;;;;;;15.88;4.43;;;16.40;57.30;;;;;;5020639;28;20501;-50
2023/10/07 02:56:17;;;;;;;10.13;4.45;;;16.40;57.30;;;;;;5021805;28;20489;-47
2023/10/07 02:58:59;;;;;;;10.50;4.00;;;16.40;57.30;;;;;;5021125;28;20061;-49
2023/10/07 03:01:26;;;;;;;16.23;4.72;;;16.40;57.30;;;;;;5018391;28;20050;-46
2023/10/07 03:03:54;;;;;;;10.80;4.28;;;16.40;57.30;;;;;;5019611;28;20049;-49
2023/10/07 03:06:26;;;;;;;10.00;4.28;;;16.40;57.30;;;;;;5020073;28;20061;-46
2023/10/07 03:09:00;;;;;;;9.75;3.90;;;16.40;57.30;;;;;;5020588;28;20054;-49
2023/10/07 03:11:48;;;;;;;9.38;3.92;;;16.40;57.40;;;;;;5019914;28;20445;-44
2023/10/07 03:14:24;;;;;;;9.77;3.95;;;16.30;57.40;;;;;;5020656;28;20050;-47
2023/10/07 03:16:59;;;;;;;12.05;4.18;;;16.40;57.40;;;;;;5018364;28;20052;-49
2023/10/07 03:19:33;;;;;;;9.05;3.72;;;16.40;57.40;;;;;;5019122;28;20050;-47
2023/10/07 03:22:10;;;;;;;11.40;4.30;;;16.40;57.90;;;;;;5018655;28;20520;-46
2023/10/07 03:24:48;;;;;;;9.18;3.97;;;16.40;57.40;;;;;;5019989;28;20378;-47
2023/10/07 03:27:25;;;;;;;13.65;4.15;;;16.40;57.50;;;;;;5019543;28;20374;-49
2023/10/07 03:30:00;;;;;;;8.52;4.38;;;16.40;57.50;;;;;;5017148;28;20414;-48
2023/10/07 03:32:53;;;;;;;9.68;4.13;;;16.40;57.50;;;;;;5018127;28;20493;-47
2023/10/07 03:35:35;;;;;;;7.05;3.92;;;16.40;57.50;;;;;;5021705;28;20421;-49
2023/10/07 03:38:08;;;;;;;8.18;4.10;;;16.40;57.50;;;;;;5022494;28;20057;-50
2023/10/07 03:40:38;;;;;;;8.95;3.85;;;16.40;57.60;;;;;;5019029;28;20057;-47
2023/10/07 03:43:08;;;;;;;21.75;4.70;;;16.40;57.60;;;;;;5021432;28;20107;-48
2023/10/07 03:45:39;;;;;;;12.98;4.10;;;16.40;57.70;;;;;;5020768;28;20053;-47
2023/10/07 03:48:22;;;;;;;8.82;3.72;;;16.40;57.70;;;;;;5019945;28;20062;-47
2023/10/07 03:50:59;;;;;;;11.80;4.47;;;16.40;57.80;;;;;;5021296;28;20064;-45
2023/10/07 03:53:31;;;;;;;9.70;3.67;;;16.50;57.90;;;;;;5021985;28;20049;-45
2023/10/07 03:56:06;;;;;;;9.93;3.92;;;16.50;58.40;;;;;;5022031;28;20058;-44
2023/10/07 03:58:36;;;;;;;10.60;4.30;;;16.50;57.90;;;;;;5020053;28;20414;-48
2023/10/07 04:01:11;;;;;;;10.05;4.13;;;16.50;58.00;;;;;;5020760;28;20069;-48
2023/10/07 04:03:40;;;;;;;8.63;3.75;;;16.50;58.00;;;;;;5020961;28;20497;-44
2023/10/07 04:06:09;;;;;;;11.88;4.03;;;16.50;58.00;;;;;;5021304;28;20056;-48
2023/10/07 04:08:39;;;;;;;8.02;3.63;;;16.50;58.00;;;;;;5021218;28;20534;-47
2023/10/07 04:11:16;;;;;;;9.48;3.88;;;16.50;58.10;;;;;;5022392;28;20057;-44
2023/10/07 04:13:45;;;;;;;9.52;3.58;;;16.60;58.20;;;;;;5022100;28;20058;-49
2023/10/07 04:16:22;;;;;;;11.10;4.22;;;16.60;58.20;;;;;;5020081;28;20057;-48
2023/10/07 04:18:50;;;;;;;10.02;3.58;;;16.60;58.10;;;;;;5020484;28;20049;-44
2023/10/07 04:21:18;;;;;;;8.55;4.13;;;16.60;58.00;;;;;;5021156;28;20057;-45
2023/10/07 04:23:48;;;;;;;8.20;3.83;;;16.60;57.90;;;;;;4998570;28;20049;-48
2023/10/07 04:26:20;;;;;;;11.90;4.10;;;16.60;57.90;;;;;;5002384;28;20056;-47
2023/10/07 04:28:49;;;;;;;9.23;4.03;;;16.70;57.90;;;;;;5001365;28;20417;-48
2023/10/07 04:31:17;;;;;;;8.52;3.88;;;16.70;57.90;;;;;;5000916;28;20062;-43
2023/10/07 04:33:48;;;;;;;10.85;3.70;;;16.70;58.00;;;;;;5001653;28;20050;-45
2023/10/07 04:36:17;;;;;;;8.90;4.28;;;16.70;57.90;;;;;;5002990;28;20057;-43
2023/10/07 04:38:56;;;;;;;11.10;4.25;;;16.70;57.90;;;;;;5005596;28;20057;-45
2023/10/07 04:41:33;;;;;;;12.90;3.80;;;16.70;57.90;;;;;;5005115;28;20065;-44
2023/10/07 04:44:20;;;;;;;10.38;4.13;;;16.70;57.80;;;;;;5005143;28;20045;-50
2023/10/07 04:46:56;;;;;;;8.48;3.65;;;16.70;57.80;;;;;;5004068;28;20509;-45
2023/10/07 04:49:36;;;;;;;12.05;5.03;;;16.70;57.80;;;;;;5003398;28;20061;-44
2023/10/07 04:52:07;;;;;;;11.75;4.13;;;16.70;57.80;;;;;;5001950;28;20056;-49
2023/10/07 04:54:36;;;;;;;10.95;4.45;;;16.80;57.90;;;;;;5003276;28;20512;-48
2023/10/07 04:57:09;;;;;;;11.05;3.90;;;16.70;57.80;;;;;;5004756;28;20076;-46
2023/10/07 04:59:45;;;;;;;15.00;4.68;;;16.70;57.90;;;;;;5002006;28;20049;-49
2023/10/07 05:02:15;;;;;;;9.88;3.88;;;16.70;57.90;;;;;;5005113;28;20050;-48
2023/10/07 05:04:49;;;;;;;39.58;17.63;;;16.70;58.00;;;;;;5003231;28;20065;-47
2023/10/07 05:07:26;;;;;;;24.98;10.80;;;16.70;58.10;;;;;;5002003;28;20053;-50
2023/10/07 05:09:53;;;;;;;10.20;5.25;;;16.70;58.20;;;;;;5004676;28;20057;-44
2023/10/07 05:12:21;;;;;;;14.30;4.53;;;16.70;58.20;;;;;;5002439;28;20046;-47
2023/10/07 05:14:49;;;;;;;8.73;3.72;;;16.70;58.30;;;;;;5004361;28;20057;-49
2023/10/07 05:17:16;;;;;;;8.35;3.80;;;16.80;58.30;;;;;;5003578;28;20406;-45
2023/10/07 05:19:42;;;;;;;9.18;3.92;;;16.80;58.30;;;;;;5004524;28;20069;-46
2023/10/07 05:22:15;;;;;;;9.95;3.60;;;16.80;58.30;;;;;;5003871;28;20046;-44
2023/10/07 05:24:46;;;;;;;13.98;4.32;;;16.80;58.30;;;;;;5001873;28;20065;-45
2023/10/07 05:27:15;;;;;;;12.00;4.53;;;16.90;58.40;;;;;;5004447;28;20065;-45
2023/10/07 05:29:43;;;;;;;7.90;3.35;;;16.90;58.30;;;;;;5002149;28;20053;-46
2023/10/07 05:32:12;;;;;;;9.75;3.88;;;16.80;58.30;;;;;;5002863;28;20856;-48
2023/10/07 05:34:41;;;;;;;8.02;3.72;;;16.90;58.30;;;;;;5001513;28;20049;-48
2023/10/07 05:37:11;;;;;;;9.07;4.00;;;16.90;58.30;;;;;;5000988;28;20060;-48
2023/10/07 05:39:41;;;;;;;9.05;4.13;;;16.90;58.30;;;;;;5003040;28;20057;-47
2023/10/07 05:42:11;;;;;;;12.07;3.90;;;17.00;58.30;;;;;;5001254;28;20061;-46
2023/10/07 05:44:40;;;;;;;6.65;3.33;;;16.90;58.30;;;;;;5003377;28;20058;-46
2023/10/07 05:47:09;;;;;;;11.48;4.43;;;16.90;58.80;;;;;;5000825;28;20061;-44
2023/10/07 05:49:38;;;;;;;12.93;4.28;;;17.00;58.30;;;;;;5002268;28;20049;-45
2023/10/07 05:52:06;;;;;;;9.98;4.15;;;17.00;58.30;;;;;;5002958;28;20725;-44
2023/10/07 05:54:35;;;;;;;9.77;3.97;;;17.00;58.30;;;;;;5003227;28;20062;-46
2023/10/07 05:57:04;;;;;;;11.00;4.53;;;17.00;58.20;;;;;;5003802;28;20050;-46
2023/10/07 05:59:33;;;;;;;10.07;3.67;;;17.10;58.20;;;;;;5004265;28;20050;-48
2023/10/07 06:02:05;;;;;;;7.32;4.10;;;17.00;58.20;;;;;;5001816;28;20057;-46
2023/10/07 06:04:33;;;;;;;10.50;3.58;;;17.10;58.20;;;;;;5003490;28;20498;-44
2023/10/07 06:07:02;;;;;;;10.88;4.55;;;17.10;58.20;;;;;;5002484;28;20411;-44
2023/10/07 06:09:29;;;;;;;12.27;4.00;;;17.10;58.20;;;;;;5003679;28;20410;-46
2023/10/07 06:11:59;;;;;;;10.25;4.10;;;17.10;58.10;;;;;;5003556;28;20053;-43
2023/10/07 06:14:26;;;;;;;10.15;4.07;;;17.10;58.10;;;;;;5003544;28;20058;-45
2023/10/07 06:16:53;;;;;;;9.63;4.30;;;17.10;58.10;;;;;;5002392;28;20065;-46
2023/10/07 06:19:21;;;;;;;9.57;4.13;;;17.20;58.20;;;;;;5002844;28;20525;-46
2023/10/07 06:21:51;;;;;;;10.57;4.22;;;17.20;58.20;;;;;;5002687;28;20061;-48
2023/10/07 06:24:21;;;;;;;10.02;4.00;;;17.20;58.10;;;;;;5002751;28;20053;-44
2023/10/07 06:26:49;;;;;;;13.60;4.57;;;17.20;58.10;;;;;;5003682;28;20058;-45
2023/10/07 06:29:19;;;;;;;13.90;3.97;;;17.20;58.10;;;;;;5003660;28;21384;-44
2023/10/07 06:31:55;;;;;;;8.82;3.88;;;17.30;58.20;;;;;;5002463;28;20069;-44
2023/10/07 06:34:25;;;;;;;9.40;3.65;;;17.30;58.20;;;;;;5002072;28;20054;-45
2023/10/07 06:36:54;;;;;;;14.00;4.88;;;17.30;58.30;;;;;;5002669;28;20061;-47
2023/10/07 06:39:27;;;;;;;11.32;4.63;;;17.30;58.30;;;;;;5002430;28;20498;-45
2023/10/07 06:41:55;;;;;;;19.63;4.83;;;17.40;58.40;;;;;;5001385;28;20054;-47
2023/10/07 06:44:24;;;;;;;12.35;4.32;;;17.40;58.30;;;;;;5001704;28;20054;-45
2023/10/07 06:46:55;;;;;;;10.00;4.05;;;17.40;58.30;;;;;;5001199;28;20057;-46
2023/10/07 06:49:23;;;;;;;11.38;4.25;;;17.40;58.80;;;;;;5000013;28;20426;-44
2023/10/07 06:51:53;;;;;;;18.73;3.80;;;17.40;58.30;;;;;;5002410;28;20045;-43
2023/10/07 06:54:23;;;;;;;8.85;3.40;;;17.50;58.40;;;;;;5002096;28;20406;-46
2023/10/07 06:56:51;;;;;;;6.47;3.65;;;17.50;58.40;;;;;;5003499;28;20414;-46
2023/10/07 06:59:18;;;;;;;12.63;3.95;;;17.60;58.40;;;;;;5001702;28;20061;-45
2023/10/07 07:01:53;;;;;;;10.20;3.95;;;17.60;58.40;;;;;;5001694;28;20054;-45
2023/10/07 07:04:22;;;;;;;32.13;15.63;;;17.60;58.40;;;;;;5001099;28;20418;-46
2023/10/07 07:06:58;;;;;;;10.57;4.63;;;17.70;58.40;;;;;;5001601;28;20053;-48
2023/10/07 07:09:51;;;;;;;12.18;4.40;;;17.70;58.40;;;;;;5001584;28;20081;-44
2023/10/07 07:12:21;;;;;;;8.05;3.65;;;17.70;58.30;;;;;;5001196;28;20525;-45
2023/10/07 07:14:56;;;;;;;9.75;4.18;;;17.80;58.30;;;;;;5001992;28;20057;-45
2023/10/07 07:17:36;;;;;;;7.78;3.95;;;17.80;58.30;;;;;;5000373;28;20050;-46
2023/10/07 07:23:10;;;;;;;11.02;3.50;;;17.90;58.10;;;;;;4989799;28;20050;-45
2023/10/07 07:25:39;;;;;;;13.52;3.88;;;18.00;58.10;;;;;;5001884;28;20714;-46
2023/10/07 07:28:09;;;;;;;8.50;3.65;;;18.00;58.10;;;;;;5002096;28;20061;-45
2023/10/07 07:30:37;;;;;;;9.80;3.53;;;18.00;58.10;;;;;;5002673;28;20516;-43
2023/10/07 07:33:08;;;;;;;13.45;4.15;;;18.00;58.00;;;;;;5001542;28;20060;-44
2023/10/07 07:35:40;;;;;;;8.32;3.80;;;18.10;58.10;;;;;;5001564;28;20429;-46
2023/10/07 07:38:18;;;;;;;8.40;3.50;;;18.10;58.10;;;;;;5001958;28;20050;-48
2023/10/07 07:40:49;;;;;;;8.65;3.75;;;18.10;58.10;;;;;;5002274;28;20054;-46
2023/10/07 07:43:19;;;;;;;7.47;3.58;;;18.10;58.00;;;;;;5000305;28;20050;-44
2023/10/07 07:45:48;;;;;;;6.65;3.38;;;18.20;58.10;;;;;;5001154;28;20061;-44
2023/10/07 07:48:16;;;;;;;11.00;3.38;;;18.20;58.10;;;;;;5001737;28;20064;-46
2023/10/07 07:50:43;;;;;;;9.23;3.80;;;18.20;58.10;;;;;;5001097;28;20046;-47
2023/10/07 07:53:12;;;;;;;8.07;4.10;;;18.30;58.10;;;;;;5001742;28;20122;-47
2023/10/07 07:55:43;;;;;;;8.18;3.20;;;18.30;58.00;;;;;;5001557;28;20054;-47
2023/10/07 07:58:12;;;;;;;9.88;3.70;;;18.30;58.00;;;;;;5001477;28;20049;-46
2023/10/07 08:00:42;;;;;;;10.45;3.55;;;18.30;58.00;;;;;;5000735;28;20049;-45
2023/10/07 08:03:09;;;;;;;7.35;3.85;;;18.40;58.00;;;;;;5001025;28;20072;-43
2023/10/07 08:05:39;;;;;;;6.22;3.30;;;18.40;58.00;;;;;;5000955;28;20061;-44
2023/10/07 08:08:18;;;;;;;7.63;3.50;;;18.40;58.00;;;;;;5001003;28;20064;-46
2023/10/07 08:10:48;;;;;;;8.35;3.60;;;18.50;58.00;;;;;;5002269;28;20093;-43
2023/10/07 08:13:23;;;;;;;8.77;3.60;;;18.50;58.00;;;;;;5002175;28;20060;-44
2023/10/07 08:15:51;;;;;;;9.07;3.55;;;18.60;57.90;;;;;;5001071;28;20410;-48
2023/10/07 08:18:22;;;;;;;7.13;3.65;;;18.60;57.90;;;;;;5000898;28;20054;-46
2023/10/07 08:20:56;;;;;;;5.65;2.90;;;18.60;57.80;;;;;;5001822;28;20054;-44
2023/10/07 08:23:28;;;;;;;8.73;3.53;;;18.70;57.90;;;;;;5001230;28;20053;-50
2023/10/07 08:26:06;;;;;;;7.22;3.13;;;18.70;57.80;;;;;;5001208;28;20062;-45
2023/10/07 08:28:42;;;;;;;6.65;3.30;;;18.80;57.90;;;;;;5001601;28;20057;-44
2023/10/07 08:31:16;;;;;;;6.50;3.22;;;18.80;57.80;;;;;;5000208;28;20068;-46
2023/10/07 08:33:48;;;;;;;9.95;3.13;;;18.80;57.70;;;;;;5000250;28;20062;-45
2023/10/07 08:36:17;;;;;;;10.32;3.88;;;18.90;57.70;;;;;;5001300;28;20057;-46
2023/10/07 08:38:45;;;;;;;15.38;4.07;;;18.90;57.60;;;;;;5001638;28;20061;-46
2023/10/07 08:41:17;;;;;;;22.83;4.18;;;18.90;58.10;;;;;;5001132;28;20057;-48
2023/10/07 08:44:03;;;;;;;7.22;3.38;;;19.00;57.60;;;;;;5000879;28;20058;-46
2023/10/07 08:46:33;;;;;;;7.38;2.88;;;19.00;57.60;;;;;;5000977;28;20061;-47
2023/10/07 08:49:11;;;;;;;9.68;2.90;;;19.10;57.60;;;;;;5000970;28;20054;-44
2023/10/07 08:51:41;;;;;;;7.88;3.40;;;19.10;57.50;;;;;;4998730;28;21051;-45
2023/10/07 08:54:11;;;;;;;6.63;3.50;;;19.10;57.40;;;;;;5001943;28;20069;-44
2023/10/07 08:56:40;;;;;;;8.68;3.35;;;19.20;57.40;;;;;;5000900;28;20057;-49
2023/10/07 08:59:12;;;;;;;7.10;3.10;;;19.20;57.30;;;;;;5001185;28;20125;-46
2023/10/07 09:01:43;;;;;;;6.47;3.10;;;19.20;57.20;;;;;;4999936;28;20483;-46
2023/10/07 09:04:10;;;;;;;7.00;3.40;;;19.20;57.10;;;;;;5000778;28;20422;-48
2023/10/07 09:06:45;;;;;;;7.22;2.92;;;19.20;57.10;;;;;;5000438;28;20517;-46
2023/10/07 09:09:13;;;;;;;4.65;2.80;;;19.20;57.10;;;;;;5001917;28;20612;-49
2023/10/07 09:11:40;;;;;;;5.63;3.30;;;19.30;57.20;;;;;;5000566;28;20057;-44
2023/10/07 09:14:10;;;;;;;7.25;3.88;;;19.30;57.20;;;;;;5000889;28;20073;-44
2023/10/07 09:16:42;;;;;;;5.80;3.30;;;19.30;57.30;;;;;;5000027;28;20061;-48
2023/10/07 09:19:13;;;;;;;8.55;3.20;;;19.30;57.30;;;;;;5000653;28;20050;-45
2023/10/07 09:21:44;;;;;;;7.15;3.40;;;19.30;57.30;;;;;;5000160;28;20057;-47
2023/10/07 09:24:24;;;;;;;8.55;3.55;;;19.40;57.30;;;;;;5005482;28;20513;-49
2023/10/07 09:26:56;;;;;;;6.63;3.00;;;19.40;57.20;;;;;;5003886;28;20054;-49
2023/10/07 09:29:32;;;;;;;8.00;3.50;;;19.40;57.10;;;;;;5004583;28;20502;-46
2023/10/07 09:32:06;;;;;;;7.35;3.22;;;19.50;57.10;;;;;;5003915;28;20046;-45
2023/10/07 09:34:43;;;;;;;9.88;3.88;;;19.50;57.10;;;;;;5003745;28;20502;-44
2023/10/07 09:37:13;;;;;;;5.57;3.08;;;19.50;57.00;;;;;;5003571;28;20076;-48
2023/10/07 09:39:46;;;;;;;10.05;3.33;;;19.50;57.00;;;;;;5003381;28;20054;-47
2023/10/07 09:42:26;;;;;;;8.57;3.33;;;19.60;57.10;;;;;;5005406;28;20049;-47
2023/10/07 09:45:07;;;;;;;7.85;2.95;;;19.60;57.10;;;;;;5004339;28;20419;-46
2023/10/07 09:47:38;;;;;;;6.38;3.00;;;19.70;57.20;;;;;;5002527;28;20050;-48
2023/10/07 09:50:19;;;;;;;6.13;3.45;;;19.70;57.00;;;;;;5004008;28;20058;-49
2023/10/07 09:52:51;;;;;;;6.70;3.20;;;19.80;57.00;;;;;;5001627;28;20064;-48
2023/10/07 09:55:38;;;;;;;6.88;2.63;;;19.70;56.90;;;;;;5003603;28;20061;-50
2023/10/07 09:58:24;;;;;;;10.25;3.25;;;19.80;57.00;;;;;;5004063;28;20597;-46
2023/10/07 10:01:05;;;;;;;11.05;3.97;;;19.80;57.00;;;;;;5001844;28;20058;-46
2023/10/07 10:03:51;;;;;;;8.13;3.17;;;19.80;57.10;;;;;;5001248;28;20057;-46
2023/10/07 10:06:39;;;;;;;5.43;3.42;;;19.90;57.00;;;;;;5001804;28;20053;-45
2023/10/07 10:09:09;;;;;;;7.20;2.92;;;19.90;56.90;;;;;;5003166;28;20410;-47
2023/10/07 10:11:46;;;;;;;7.82;3.53;;;19.90;56.80;;;;;;5002063;28;20831;-46
2023/10/07 10:14:29;;;;;;;8.93;3.10;;;19.90;56.90;;;;;;5002086;28;20497;-48
2023/10/07 10:17:00;;;;;;;10.40;3.40;;;19.90;57.00;;;;;;5001349;28;20057;-45
2023/10/07 10:19:37;;;;;;;7.20;3.25;;;20.00;57.00;;;;;;5001333;28;20053;-48
2023/10/07 10:22:12;;;;;;;5.90;3.25;;;20.00;56.90;;;;;;5000784;28;20398;-49
2023/10/07 10:24:44;;;;;;;5.47;2.78;;;20.00;57.00;;;;;;5002838;28;20057;-46
2023/10/07 10:27:12;;;;;;;6.57;3.25;;;20.00;57.00;;;;;;5001332;28;20512;-50
2023/10/07 10:29:52;;;;;;;8.45;3.42;;;20.10;57.20;;;;;;5001377;28;20486;-49
2023/10/07 10:32:28;;;;;;;6.72;3.42;;;20.10;56.90;;;;;;5000525;28;20486;-47
2023/10/07 10:34:56;;;;;;;7.53;3.00;;;20.20;56.70;;;;;;5000517;28;20401;-47
2023/10/07 10:37:26;;;;;;;8.15;3.17;;;20.20;56.70;;;;;;4999791;28;20057;-47
2023/10/07 10:39:54;;;;;;;5.47;3.08;;;20.20;56.70;;;;;;5002478;28;20486;-44
2023/10/07 10:42:22;;;;;;;9.93;3.03;;;20.30;56.80;;;;;;5001044;28;20411;-47
2023/10/07 10:44:49;;;;;;;9.10;3.60;;;20.30;56.60;;;;;;4999329;28;20053;-46
2023/10/07 10:47:18;;;;;;;9.05;3.70;;;20.40;56.60;;;;;;4998964;28;20053;-45
2023/10/07 10:49:47;;;;;;;7.63;3.65;;;20.40;56.40;;;;;;5002802;28;20062;-47
2023/10/07 10:52:18;;;;;;;9.20;3.83;;;20.40;56.20;;;;;;5001339;28;20050;-44
2023/10/07 10:54:45;;;;;;;9.45;3.97;;;20.50;56.40;;;;;;5002905;28;20064;-47
2023/10/07 10:57:19;;;;;;;7.47;3.75;;;20.50;56.30;;;;;;5003003;28;20073;-45
2023/10/07 10:59:48;;;;;;;6.95;3.45;;;20.60;56.10;;;;;;5002028;28;20057;-47
2023/10/07 11:02:17;;;;;;;9.10;3.65;;;20.60;56.20;;;;;;5001352;28;20064;-44
2023/10/07 11:04:47;;;;;;;7.68;3.65;;;20.60;56.10;;;;;;5002166;28;20053;-45
2023/10/07 11:07:14;;;;;;;7.63;3.35;;;20.60;56.10;;;;;;5001105;28;20057;-45
2023/10/07 11:09:42;;;;;;;6.15;3.60;;;20.70;55.90;;;;;;5003438;28;20490;-46
2023/10/07 11:12:12;;;;;;;8.80;3.63;;;20.70;55.90;;;;;;5002492;28;20050;-46
2023/10/07 11:14:41;;;;;;;4.55;2.92;;;20.80;56.00;;;;;;5002764;28;21228;-44
2023/10/07 11:17:10;;;;;;;13.95;3.40;;;20.80;56.00;;;;;;5001735;28;20062;-45
2023/10/07 11:19:42;;;;;;;8.18;4.10;;;20.80;56.10;;;;;;5002079;28;20061;-49
2023/10/07 11:22:12;;;;;;;6.78;3.15;;;20.90;56.20;;;;;;5000595;28;21972;-47
2023/10/07 11:24:40;;;;;;;5.53;3.20;;;20.90;56.20;;;;;;5002446;28;20413;-48
2023/10/07 11:27:09;;;;;;;128.88;78.70;;;21.00;56.30;;;;;;5002475;28;20065;-46
2023/10/07 11:29:38;;;;;;;25.98;16.42;;;21.00;56.20;;;;;;5002097;28;20053;-45
2023/10/07 11:32:07;;;;;;;10.57;5.65;;;21.00;56.00;;;;;;5002252;28;20080;-42
2023/10/07 11:34:39;;;;;;;8.13;3.83;;;21.10;55.80;;;;;;5000806;28;20053;-45
2023/10/07 11:37:16;;;;;;;7.07;3.65;;;21.20;55.70;;;;;;5000806;28;20064;-46
2023/10/07 11:39:45;;;;;;;6.28;3.53;;;21.20;55.50;;;;;;5002832;28;20533;-45
2023/10/07 11:42:17;;;;;;;6.28;3.38;;;21.30;55.50;;;;;;5001491;28;20157;-45
2023/10/07 11:44:46;;;;;;;6.15;3.17;;;21.30;55.30;;;;;;5001996;28;20418;-45
2023/10/07 11:47:16;;;;;;;6.97;3.13;;;21.40;55.30;;;;;;5001444;28;20050;-47
2023/10/07 11:49:46;;;;;;;7.30;3.50;;;21.40;55.50;;;;;;5001441;28;20498;-47
2023/10/07 11:52:19;;;;;;;7.38;3.70;;;21.40;55.70;;;;;;4999637;28;20414;-47
2023/10/07 11:54:46;;;;;;;6.63;3.20;;;21.50;55.60;;;;;;5002727;28;20054;-46
2023/10/07 11:57:14;;;;;;;6.45;3.25;;;21.60;55.30;;;;;;5002140;28;20064;-46
2023/10/07 11:59:45;;;;;;;5.13;2.97;;;21.60;55.10;;;;;;5002030;28;20045;-49
2023/10/07 12:02:14;;;;;;;5.07;2.80;;;21.70;54.90;;;;;;5000883;28;20049;-46
2023/10/07 12:04:46;;;;;;;6.45;2.72;;;21.80;54.60;;;;;;5001721;28;20057;-49
2023/10/07 12:07:16;;;;;;;6.55;2.75;;;21.80;54.60;;;;;;5000462;28;20061;-47
2023/10/07 12:09:46;;;;;;;5.63;2.53;;;21.90;54.40;;;;;;5001963;28;20058;-48
2023/10/07 12:12:14;;;;;;;7.05;2.90;;;21.90;54.10;;;;;;5001285;28;20057;-45
2023/10/07 12:14:41;;;;;;;9.38;2.70;;;22.00;54.20;;;;;;5001914;28;20054;-48
2023/10/07 12:17:09;;;;;;;4.25;2.20;;;22.00;54.10;;;;;;5000955;28;20065;-48
2023/10/07 12:19:36;;;;;;;4.53;2.33;;;22.10;54.00;;;;;;5001461;28;20490;-49
2023/10/07 12:22:05;;;;;;;4.68;2.40;;;22.10;54.00;;;;;;5000227;28;20502;-48
2023/10/07 12:24:34;;;;;;;4.28;2.30;;;22.20;54.10;;;;;;5001814;28;20046;-45
2023/10/07 12:27:02;;;;;;;5.20;2.40;;;22.20;54.20;;;;;;5001446;28;20433;-50
2023/10/07 12:29:29;;;;;;;7.63;3.22;;;22.30;54.30;;;;;;5001985;28;20062;-45
2023/10/07 12:31:58;;;;;;;5.40;2.30;;;22.40;54.10;;;;;;5000442;28;20513;-46
2023/10/07 12:34:26;;;;;;;5.25;2.60;;;22.50;54.00;;;;;;5000717;28;20054;-46
2023/10/07 12:36:53;;;;;;;3.58;2.15;;;22.50;53.70;;;;;;5001374;28;20064;-47
2023/10/07 12:39:21;;;;;;;4.18;2.47;;;22.60;53.60;;;;;;5001153;28;20049;-48
2023/10/07 12:41:51;;;;;;;4.78;2.00;;;22.70;53.70;;;;;;5001087;28;20058;-46
2023/10/07 12:44:18;;;;;;;5.25;2.15;;;22.70;53.60;;;;;;5000663;28;20057;-47
2023/10/07 12:46:45;;;;;;;10.00;2.40;;;22.70;53.50;;;;;;5001359;28;20053;-48
2023/10/07 12:49:14;;;;;;;4.95;2.20;;;22.80;53.40;;;;;;5000511;28;20049;-51
2023/10/07 12:51:43;;;;;;;4.72;2.05;;;22.90;53.20;;;;;;5000645;28;20061;-47
2023/10/07 12:54:11;;;;;;;5.20;2.08;;;23.00;53.00;;;;;;5001528;28;20070;-45
2023/10/07 12:56:39;;;;;;;4.60;2.10;;;23.00;52.90;;;;;;5002557;28;20681;-46
2023/10/07 12:59:17;;;;;;;5.57;2.83;;;23.10;52.90;;;;;;5005164;28;20064;-45
2023/10/07 13:01:50;;;;;;;10.85;5.97;;;23.10;53.00;;;;;;5004541;28;20046;-49
2023/10/07 13:04:19;;;;;;;6.55;2.75;;;23.20;53.20;;;;;;5004776;28;20494;-45
2023/10/07 13:06:48;;;;;;;9.40;4.50;;;23.20;53.10;;;;;;5004617;28;20057;-49
2023/10/07 13:09:17;;;;;;;5.50;2.78;;;23.30;53.20;;;;;;5005247;28;20058;-48